Time;durP1;ratioP1;P1;durP2;ratioP2;P2;SDS_P1;SDS_P2;PMS_P1;PMS_P2;Temp;Humidity;BMP_temperature;BMP_pressure;BME280_temperature;BME280_humidity;BME280_pressure;Samples;Min_cycle;Max_cycle;Signal;HPM_P1;HPM_P2
2021/01/04 00:00:06;;;;;;;8.00;4.55;;;7.30;99.90;;;;;;5036879;28;20029;-76
2021/01/04 00:02:58;;;;;;;5.65;4.97;;;7.20;99.90;;;;;;5036631;28;20029;-72
2021/01/04 00:06:01;;;;;;;7.50;5.20;;;7.20;99.90;;;;;;5033840;28;20034;-77
2021/01/04 00:08:33;;;;;;;;;;;7.20;99.90;;;;;;5034501;28;20105;-73
2021/01/04 00:11:36;;;;;;;4.75;4.32;;;7.10;99.90;;;;;;5035303;28;19912;-72
2021/01/04 00:14:29;;;;;;;5.82;4.60;;;7.20;99.90;;;;;;5028845;28;20022;-71
2021/01/04 00:17:24;;;;;;;5.97;4.68;;;7.10;99.90;;;;;;5022967;28;20029;-71
2021/01/04 00:20:01;;;;;;;8.35;4.32;;;7.20;99.90;;;;;;5013841;28;20030;-71
2021/01/04 00:22:45;;;;;;;4.60;4.20;;;7.20;99.90;;;;;;5034666;28;20025;-74
2021/01/04 00:25:18;;;;;;;6.22;4.93;;;7.20;99.90;;;;;;5029439;28;20041;-73
2021/01/04 00:27:55;;;;;;;4.60;3.88;;;7.30;99.90;;;;;;5033844;28;20029;-72
2021/01/04 00:30:29;;;;;;;6.57;4.50;;;7.20;99.90;;;;;;5032854;28;20033;-73
2021/01/04 00:32:59;;;;;;;7.72;4.53;;;7.20;99.90;;;;;;5034171;28;20497;-72
2021/01/04 00:35:27;;;;;;;6.03;4.63;;;7.30;99.90;;;;;;5026200;28;20014;-74
2021/01/04 00:38:19;;;;;;;8.00;4.97;;;7.30;99.90;;;;;;5032817;28;20033;-72
2021/01/04 00:41:07;;;;;;;6.20;4.55;;;7.30;99.90;;;;;;5033900;28;20048;-72
2021/01/04 00:43:40;;;;;;;5.95;4.47;;;7.30;99.90;;;;;;5033762;28;20071;-72
2021/01/04 00:46:07;;;;;;;7.72;4.43;;;7.20;99.90;;;;;;5025831;28;20072;-75
2021/01/04 00:48:52;;;;;;;5.07;4.53;;;7.30;99.90;;;;;;5017803;28;20061;-73
2021/01/04 00:51:27;;;;;;;6.07;4.70;;;7.30;99.90;;;;;;5013741;28;20030;-72
2021/01/04 00:53:54;;;;;;;3.88;3.40;;;7.30;99.90;;;;;;5013566;28;20022;-73
2021/01/04 00:56:36;;;;;;;5.10;3.70;;;7.30;99.90;;;;;;5017060;28;20018;-75
2021/01/04 00:59:25;;;;;;;7.05;5.00;;;7.30;99.90;;;;;;5035340;28;20087;-73
2021/01/04 01:02:01;;;;;;;4.38;3.92;;;7.30;99.90;;;;;;5034990;28;20033;-73
2021/01/04 01:04:49;;;;;;;12.32;4.40;;;7.30;99.90;;;;;;5034498;28;20050;-72
2021/01/04 01:07:36;;;;;;;5.00;3.92;;;7.30;99.90;;;;;;5033706;28;20121;-72
2021/01/04 01:10:07;;;;;;;5.93;3.85;;;7.30;99.90;;;;;;5035017;28;20420;-73
2021/01/04 01:12:49;;;;;;;4.95;4.15;;;7.30;99.90;;;;;;5034740;28;20029;-73
2021/01/04 01:15:27;;;;;;;5.57;4.43;;;7.30;99.90;;;;;;5025867;28;20029;-76
2021/01/04 01:18:15;;;;;;;3.88;3.47;;;7.30;99.90;;;;;;5015600;28;20340;-74
2021/01/04 01:20:51;;;;;;;4.47;3.97;;;7.40;99.90;;;;;;5034202;28;20036;-75
2021/01/04 01:23:17;;;;;;;4.57;3.63;;;7.40;99.90;;;;;;5034581;28;20026;-74
2021/01/04 01:26:10;;;;;;;5.45;4.60;;;7.40;99.90;;;;;;5033381;28;20053;-72
2021/01/04 01:29:11;;;;;;;6.82;4.80;;;7.50;99.90;;;;;;5026561;28;20083;-72
2021/01/04 01:32:05;;;;;;;5.70;4.80;;;7.50;99.90;;;;;;5027376;28;20128;-72
2021/01/04 01:35:18;;;;;;;6.07;4.05;;;7.50;99.90;;;;;;5026696;28;20285;-74
2021/01/04 01:38:05;;;;;;;4.82;4.05;;;7.50;99.90;;;;;;5014415;28;20049;-72
2021/01/04 01:40:59;;;;;;;4.10;3.40;;;7.50;99.90;;;;;;5025871;28;20591;-75
2021/01/04 01:43:54;;;;;;;5.20;4.00;;;7.50;99.90;;;;;;5025521;28;20116;-71
2021/01/04 01:46:23;;;;;;;5.15;3.95;;;7.50;99.90;;;;;;5019874;28;20040;-72
2021/01/04 01:49:20;;;;;;;4.78;3.88;;;7.50;99.90;;;;;;5018364;28;20057;-72
2021/01/04 01:52:20;;;;;;;2.85;2.50;;;7.50;99.90;;;;;;5034262;28;20029;-76
2021/01/04 01:54:53;;;;;;;4.40;3.30;;;7.50;99.90;;;;;;5030054;28;20026;-74
2021/01/04 01:57:39;;;;;;;7.57;3.78;;;7.50;99.90;;;;;;5029413;28;20072;-72
2021/01/04 02:00:24;;;;;;;4.47;3.95;;;7.50;99.90;;;;;;5030024;28;20025;-72
2021/01/04 02:03:04;;;;;;;4.50;3.30;;;7.50;99.90;;;;;;5033009;28;20032;-71
2021/01/04 02:05:55;;;;;;;4.45;3.25;;;7.50;99.90;;;;;;5021666;28;20507;-75
2021/01/04 02:08:26;;;;;;;3.13;2.90;;;7.50;99.90;;;;;;5021212;28;20087;-74
2021/01/04 02:11:01;;;;;;;3.83;3.45;;;7.60;99.90;;;;;;5032813;28;20028;-72
2021/01/04 02:13:37;;;;;;;4.35;3.72;;;7.60;99.90;;;;;;5031810;28;20469;-74
2021/01/04 02:16:09;;;;;;;3.75;3.45;;;7.60;99.90;;;;;;5019980;28;20627;-73
2021/01/04 02:19:08;;;;;;;4.30;2.83;;;7.60;99.90;;;;;;5034014;28;20472;-74
2021/01/04 02:21:43;;;;;;;3.40;2.95;;;7.70;99.90;;;;;;5033990;28;20159;-72
2021/01/04 02:24:14;;;;;;;5.00;3.60;;;7.80;99.90;;;;;;5027263;28;20052;-74
2021/01/04 02:26:48;;;;;;;3.15;2.38;;;7.80;99.90;;;;;;5014592;28;20026;-72
2021/01/04 02:29:18;;;;;;;3.10;2.60;;;7.80;99.90;;;;;;5014898;28;20081;-74
2021/01/04 02:31:55;;;;;;;3.00;2.70;;;7.80;99.90;;;;;;5029919;28;20421;-72
2021/01/04 02:34:27;;;;;;;4.28;3.45;;;7.80;99.90;;;;;;5032809;28;20385;-71
2021/01/04 02:36:55;;;;;;;3.38;3.05;;;7.80;99.90;;;;;;5033476;28;20014;-72
2021/01/04 02:40:00;;;;;;;4.18;2.55;;;7.70;99.90;;;;;;5031158;28;20079;-72
2021/01/04 02:42:30;;;;;;;3.15;2.83;;;7.80;99.90;;;;;;4989494;28;20137;-75
2021/01/04 02:44:57;;;;;;;3.08;2.88;;;7.80;99.90;;;;;;4998561;28;20359;-71
2021/01/04 02:47:48;;;;;;;2.85;2.60;;;7.80;99.90;;;;;;5016443;28;20472;-75
2021/01/04 02:50:32;;;;;;;3.10;2.65;;;7.80;99.90;;;;;;5037663;28;20026;-75
2021/01/04 02:53:19;;;;;;;3.17;2.60;;;7.80;99.90;;;;;;5042959;28;20091;-72
2021/01/04 02:55:45;;;;;;;3.53;3.13;;;7.80;99.90;;;;;;5041670;28;20449;-73
2021/01/04 02:58:17;;;;;;;12.10;3.35;;;7.80;99.90;;;;;;5038028;28;20117;-75
2021/01/04 03:00:47;;;;;;;3.03;2.70;;;7.80;99.90;;;;;;5039116;28;20026;-72
2021/01/04 03:03:15;;;;;;;2.83;2.08;;;7.80;99.90;;;;;;5037909;28;20074;-71
2021/01/04 03:05:41;;;;;;;2.38;2.17;;;7.80;99.90;;;;;;5037401;28;20033;-71
2021/01/04 03:08:07;;;;;;;2.28;2.00;;;7.80;99.90;;;;;;5037383;28;20091;-72
2021/01/04 03:10:38;;;;;;;2.75;2.55;;;7.80;99.90;;;;;;5038102;28;20080;-73
2021/01/04 03:13:26;;;;;;;3.20;1.80;;;7.80;99.90;;;;;;5030395;28;20033;-73
2021/01/04 03:16:17;;;;;;;4.07;2.53;;;7.80;99.90;;;;;;5037272;28;20035;-74
2021/01/04 03:19:09;;;;;;;1.93;1.73;;;7.80;99.90;;;;;;5035845;28;20022;-72
2021/01/04 03:21:36;;;;;;;2.55;2.35;;;7.80;99.90;;;;;;5018154;28;20037;-72
2021/01/04 03:24:05;;;;;;;3.15;2.05;;;7.90;99.90;;;;;;5019593;28;20026;-72
2021/01/04 03:26:52;;;;;;;2.63;1.55;;;7.80;99.90;;;;;;5037209;28;20025;-74
2021/01/04 03:29:17;;;;;;;2.28;2.05;;;7.80;99.90;;;;;;5033840;28;20388;-73
2021/01/04 03:31:43;;;;;;;2.58;2.13;;;7.90;99.90;;;;;;5034017;28;20116;-72
2021/01/04 03:34:09;;;;;;;2.10;1.90;;;7.90;99.90;;;;;;5034636;28;20421;-74
2021/01/04 03:36:35;;;;;;;2.88;1.85;;;7.80;99.90;;;;;;5031634;28;20370;-76
2021/01/04 03:39:01;;;;;;;3.22;2.13;;;7.80;99.90;;;;;;5036093;28;20448;-77
2021/01/04 03:41:29;;;;;;;1.92;1.77;;;7.80;99.90;;;;;;5036790;28;20649;-72
2021/01/04 03:43:55;;;;;;;2.17;2.00;;;7.80;99.90;;;;;;5034510;28;20025;-72
2021/01/04 03:46:21;;;;;;;2.70;2.45;;;7.80;99.90;;;;;;5036461;28;20018;-75
2021/01/04 03:48:47;;;;;;;5.70;2.22;;;7.90;99.90;;;;;;5037205;28;20574;-72
2021/01/04 03:51:13;;;;;;;4.28;1.90;;;7.90;99.90;;;;;;5024231;28;20025;-72
2021/01/04 03:53:43;;;;;;;1.73;1.58;;;7.90;99.90;;;;;;5035057;28;20144;-72
2021/01/04 03:56:14;;;;;;;1.73;1.63;;;8.00;99.90;;;;;;5034096;28;20025;-72
2021/01/04 03:58:40;;;;;;;3.67;2.60;;;8.00;99.90;;;;;;5034446;28;20024;-76
2021/01/04 04:01:06;;;;;;;3.85;2.80;;;8.00;99.90;;;;;;5035893;28;20018;-74
2021/01/04 04:03:32;;;;;;;3.63;2.60;;;8.00;99.90;;;;;;5035983;28;20508;-72
2021/01/04 04:05:57;;;;;;;2.13;1.92;;;8.00;99.90;;;;;;5035504;28;20614;-72
2021/01/04 04:08:23;;;;;;;2.20;1.70;;;8.00;99.90;;;;;;5034323;28;20033;-73
2021/01/04 04:10:49;;;;;;;4.78;2.13;;;8.00;99.90;;;;;;5026019;28;20021;-73
2021/01/04 04:13:15;;;;;;;3.25;2.28;;;8.00;99.90;;;;;;5025101;28;20028;-74
2021/01/04 04:15:41;;;;;;;2.20;1.60;;;8.00;99.90;;;;;;5027311;28;20025;-75
2021/01/04 04:18:08;;;;;;;3.05;2.08;;;8.00;99.90;;;;;;5035853;28;20033;-73
2021/01/04 04:20:34;;;;;;;2.80;2.10;;;7.90;99.90;;;;;;5029166;28;20546;-73
2021/01/04 04:23:00;;;;;;;3.33;3.03;;;7.90;99.90;;;;;;5035827;28;20120;-73
2021/01/04 04:25:26;;;;;;;3.50;2.30;;;8.00;99.90;;;;;;5035207;28;20032;-76
2021/01/04 04:27:53;;;;;;;2.00;1.80;;;8.00;99.90;;;;;;5034951;28;20034;-73
2021/01/04 04:30:21;;;;;;;2.60;2.40;;;8.10;99.90;;;;;;5035497;28;20021;-73
2021/01/04 04:32:52;;;;;;;3.50;2.90;;;8.10;99.90;;;;;;5035497;28;20025;-73
2021/01/04 04:35:18;;;;;;;5.22;2.78;;;8.10;99.90;;;;;;5035194;28;20133;-73
2021/01/04 04:37:44;;;;;;;2.25;2.05;;;8.00;99.90;;;;;;5035113;28;20041;-72
2021/01/04 04:40:26;;;;;;;3.50;2.65;;;8.00;99.90;;;;;;5029632;28;20107;-73
2021/01/04 05:06:48;;;;;;;4.97;3.13;;;8.30;99.90;;;;;;5028430;28;20040;-75
2021/01/04 05:09:17;;;;;;;4.30;2.83;;;8.30;99.90;;;;;;5034772;28;20029;-72
2021/01/04 05:11:46;;;;;;;3.17;2.92;;;8.40;99.90;;;;;;5034716;28;20021;-76
2021/01/04 05:14:33;;;;;;;3.30;2.60;;;8.40;99.90;;;;;;5032191;28;20155;-75
2021/01/04 05:17:30;;;;;;;3.13;2.50;;;8.40;99.90;;;;;;5015986;28;20025;-73
2021/01/04 05:20:26;;;;;;;3.35;2.60;;;8.40;99.90;;;;;;5031385;28;20029;-72
2021/01/04 05:23:22;;;;;;;5.22;3.67;;;8.50;99.90;;;;;;5025503;28;20032;-75
2021/01/04 05:26:03;;;;;;;3.33;3.03;;;8.40;99.90;;;;;;5033304;28;20044;-72
2021/01/04 05:28:58;;;;;;;2.92;2.45;;;8.40;99.90;;;;;;5034098;28;20025;-75
2021/01/04 05:31:42;;;;;;;4.82;3.15;;;8.50;99.90;;;;;;5014947;28;20036;-73
2021/01/04 05:34:20;;;;;;;3.83;3.25;;;8.50;99.90;;;;;;5027813;28;20473;-73
2021/01/04 05:36:54;;;;;;;5.45;3.53;;;8.50;99.90;;;;;;5032275;28;20029;-73
2021/01/04 05:39:33;;;;;;;3.65;2.78;;;8.50;99.90;;;;;;5034443;28;20082;-72
2021/01/04 05:42:11;;;;;;;3.88;2.67;;;8.50;99.90;;;;;;5032710;28;20033;-73
2021/01/04 05:44:49;;;;;;;3.60;3.30;;;8.50;99.90;;;;;;5024837;28;20033;-76
2021/01/04 05:47:15;;;;;;;4.70;3.40;;;8.40;99.90;;;;;;5020346;28;20022;-76
2021/01/04 05:49:50;;;;;;;2.50;2.30;;;8.50;99.90;;;;;;5034568;28;20109;-73
2021/01/04 05:52:17;;;;;;;3.72;3.33;;;8.40;99.90;;;;;;5033032;28;20068;-73
2021/01/04 05:54:44;;;;;;;3.65;3.13;;;8.50;99.90;;;;;;5032898;28;20029;-73
2021/01/04 05:57:13;;;;;;;3.40;3.10;;;8.50;99.90;;;;;;5035432;28;20024;-74
2021/01/04 05:59:56;;;;;;;3.30;2.80;;;8.50;99.90;;;;;;5032042;28;20075;-74
2021/01/04 06:02:36;;;;;;;3.28;2.70;;;8.50;99.90;;;;;;5032391;28;20026;-76
2021/01/04 06:05:14;;;;;;;3.40;3.10;;;8.50;99.90;;;;;;5028972;28;20026;-75
2021/01/04 06:07:43;;;;;;;2.95;2.65;;;8.40;99.90;;;;;;5030385;28;20041;-74
2021/01/04 06:10:23;;;;;;;3.38;3.10;;;8.30;99.90;;;;;;5030394;28;20048;-74
2021/01/04 06:12:51;;;;;;;4.10;3.80;;;8.30;99.90;;;;;;5030823;28;20105;-74
2021/01/04 06:15:32;;;;;;;4.95;2.80;;;8.30;99.90;;;;;;5033691;28;20548;-75
2021/01/04 06:18:05;;;;;;;3.08;2.78;;;8.30;99.90;;;;;;5029391;28;20029;-73
2021/01/04 06:20:46;;;;;;;3.03;2.20;;;8.30;99.90;;;;;;5032588;28;20432;-75
2021/01/04 06:23:32;;;;;;;3.50;2.60;;;8.30;99.90;;;;;;5030464;28;20056;-75
2021/01/04 06:26:11;;;;;;;3.58;2.30;;;8.30;99.90;;;;;;5031990;28;20079;-75
2021/01/04 06:28:46;;;;;;;2.97;1.92;;;8.40;99.90;;;;;;5031105;28;20105;-74
2021/01/04 06:31:15;;;;;;;2.70;2.50;;;8.40;99.90;;;;;;5012319;28;20048;-76
2021/01/04 06:33:41;;;;;;;5.30;2.58;;;8.30;99.90;;;;;;5031899;28;20017;-74
2021/01/04 06:36:17;;;;;;;3.65;2.97;;;8.30;99.90;;;;;;5025358;28;20021;-75
2021/01/04 06:38:44;;;;;;;3.70;2.72;;;8.30;99.90;;;;;;5033546;28;20014;-73
2021/01/04 06:41:29;;;;;;;4.15;2.92;;;8.30;99.90;;;;;;5034084;28;20048;-75
2021/01/04 06:43:55;;;;;;;2.75;2.33;;;8.30;99.90;;;;;;5025152;28;20038;-74
2021/01/04 06:46:36;;;;;;;3.50;2.75;;;8.30;99.90;;;;;;5030868;28;20111;-74
2021/01/04 06:49:18;;;;;;;3.92;2.17;;;8.20;99.90;;;;;;5033046;28;20502;-75
2021/01/04 06:52:18;;;;;;;2.58;2.38;;;8.20;99.90;;;;;;5033181;28;20049;-75
2021/01/04 06:55:10;;;;;;;3.05;2.55;;;8.10;99.90;;;;;;5029805;28;20116;-73
2021/01/04 06:57:45;;;;;;;;;;;8.20;99.90;;;;;;5031641;28;20029;-74
2021/01/04 07:00:23;;;;;;;3.63;3.30;;;8.20;99.90;;;;;;5026065;28;19992;-72
2021/01/04 07:02:49;;;;;;;4.65;2.58;;;8.20;99.90;;;;;;5029528;28;20064;-73
2021/01/04 07:05:52;;;;;;;2.85;2.38;;;8.10;99.90;;;;;;5026068;28;20021;-77
2021/01/04 07:08:58;;;;;;;2.78;2.45;;;8.10;99.90;;;;;;5031704;28;20097;-73
2021/01/04 07:11:44;;;;;;;3.45;2.92;;;8.10;99.90;;;;;;5028090;28;20574;-74
2021/01/04 07:14:31;;;;;;;4.68;4.00;;;8.10;99.90;;;;;;5024850;28;20113;-72
2021/01/04 07:17:24;;;;;;;2.90;2.33;;;8.10;99.90;;;;;;5030764;28;20048;-75
2021/01/04 07:19:56;;;;;;;6.07;3.10;;;8.10;99.90;;;;;;5033489;28;20080;-75
2021/01/04 07:22:34;;;;;;;3.47;2.97;;;8.10;99.90;;;;;;5031382;28;20022;-76
2021/01/04 07:25:21;;;;;;;2.20;2.00;;;8.20;99.90;;;;;;5025442;28;20029;-76
2021/01/04 07:28:27;;;;;;;2.53;2.33;;;8.20;99.90;;;;;;5032694;28;20374;-75
2021/01/04 07:31:26;;;;;;;3.53;2.90;;;8.10;99.90;;;;;;5010964;28;20033;-76
2021/01/04 07:34:01;;;;;;;2.35;2.15;;;8.20;99.90;;;;;;5028500;28;20412;-74
2021/01/04 07:36:43;;;;;;;2.67;2.25;;;8.20;99.90;;;;;;5037853;28;20511;-75
2021/01/04 07:39:29;;;;;;;4.18;3.30;;;8.20;99.90;;;;;;5032868;28;20028;-75
2021/01/04 07:41:58;;;;;;;3.80;3.17;;;8.20;99.90;;;;;;5025112;28;20038;-74
2021/01/04 07:44:48;;;;;;;6.72;6.03;;;8.20;99.90;;;;;;5030031;28;20493;-75
2021/01/04 07:47:51;;;;;;;4.00;3.05;;;8.20;99.90;;;;;;5026602;28;20036;-75
2021/01/04 07:50:41;;;;;;;2.30;2.10;;;8.20;99.90;;;;;;5033056;28;20104;-74
2021/01/04 07:53:32;;;;;;;1.80;1.70;;;8.10;99.90;;;;;;5032383;28;20266;-74
2021/01/04 07:56:16;;;;;;;3.17;1.73;;;8.00;99.90;;;;;;5035075;28;20026;-74
2021/01/04 07:59:15;;;;;;;1.90;1.80;;;7.90;99.90;;;;;;5033401;28;20025;-74
2021/01/04 08:02:11;;;;;;;2.47;2.22;;;7.80;99.90;;;;;;5030934;28;20634;-74
2021/01/04 08:05:10;;;;;;;2.65;2.15;;;7.80;99.90;;;;;;5026432;28;20088;-74
2021/01/04 08:08:13;;;;;;;2.63;1.92;;;7.60;99.90;;;;;;5034735;28;20072;-74
2021/01/04 08:10:39;;;;;;;2.40;2.20;;;7.50;99.90;;;;;;5031468;28;20041;-76
2021/01/04 08:13:31;;;;;;;6.93;3.00;;;7.50;99.90;;;;;;5033381;28;20029;-75
2021/01/04 08:16:23;;;;;;;2.90;2.65;;;7.40;99.90;;;;;;5025339;28;20504;-74
2021/01/04 08:18:59;;;;;;;2.58;1.80;;;7.40;99.90;;;;;;5033268;28;20512;-73
2021/01/04 08:21:51;;;;;;;5.63;1.95;;;7.40;99.90;;;;;;5030849;28;20013;-74
2021/01/04 08:24:45;;;;;;;3.00;2.10;;;7.30;99.90;;;;;;5030406;28;20124;-74
2021/01/04 08:27:49;;;;;;;4.88;1.90;;;7.30;99.90;;;;;;5026141;28;20025;-74
2021/01/04 08:30:27;;;;;;;2.97;2.53;;;7.30;99.90;;;;;;5019814;28;20030;-73
2021/01/04 08:33:05;;;;;;;4.03;3.63;;;7.30;99.90;;;;;;5014295;28;20516;-73
2021/01/04 08:35:41;;;;;;;2.15;1.70;;;7.20;99.90;;;;;;5032492;28;20035;-73
2021/01/04 08:38:39;;;;;;;2.55;2.00;;;7.20;99.90;;;;;;5025520;28;20018;-73
2021/01/04 08:41:20;;;;;;;2.17;1.80;;;7.10;99.90;;;;;;5013115;28;20036;-74
2021/01/04 08:43:49;;;;;;;3.10;1.88;;;7.10;99.90;;;;;;5030563;28;20025;-76
2021/01/04 08:46:24;;;;;;;2.30;2.10;;;7.00;99.90;;;;;;5032326;28;20029;-73
2021/01/04 08:48:55;;;;;;;2.60;2.03;;;7.00;99.90;;;;;;5032392;28;20026;-74
2021/01/04 08:51:35;;;;;;;2.43;2.03;;;7.00;99.90;;;;;;5033771;28;20033;-74
2021/01/04 08:54:22;;;;;;;2.25;1.83;;;7.00;99.90;;;;;;5032439;28;20028;-73
2021/01/04 08:56:51;;;;;;;1.60;1.50;;;7.00;99.90;;;;;;5032280;28;20029;-73
2021/01/04 08:59:22;;;;;;;2.88;2.38;;;7.00;99.90;;;;;;5033071;28;20017;-74
2021/01/04 09:01:53;;;;;;;2.17;1.98;;;7.10;99.90;;;;;;5032119;28;20037;-74
2021/01/04 09:04:30;;;;;;;2.95;2.10;;;7.10;99.90;;;;;;5031623;28;20029;-74
2021/01/04 09:07:07;;;;;;;1.60;1.48;;;7.20;99.90;;;;;;5031209;28;20029;-73
2021/01/04 09:09:56;;;;;;;3.10;1.65;;;7.20;99.90;;;;;;5032527;28;20030;-73
2021/01/04 09:12:33;;;;;;;2.40;1.70;;;7.00;99.90;;;;;;5018207;28;20393;-74
2021/01/04 09:15:13;;;;;;;1.85;1.75;;;7.00;99.90;;;;;;5027782;28;20112;-73
2021/01/04 09:17:50;;;;;;;1.30;1.15;;;7.00;99.90;;;;;;5028895;28;20028;-73
2021/01/04 09:20:18;;;;;;;1.85;1.73;;;7.10;99.90;;;;;;5027769;28;20432;-79
2021/01/04 09:23:03;;;;;;;1.65;1.40;;;7.00;99.90;;;;;;5031482;28;20346;-73
2021/01/04 09:25:46;;;;;;;3.03;2.25;;;7.00;99.90;;;;;;5027398;28;20389;-74
2021/01/04 09:28:15;;;;;;;2.15;1.88;;;7.00;99.90;;;;;;5027937;28;20375;-74
2021/01/04 09:30:41;;;;;;;1.70;1.60;;;7.10;99.90;;;;;;5033624;28;20026;-74
2021/01/04 09:33:15;;;;;;;3.05;2.28;;;7.10;99.90;;;;;;5028481;28;20429;-73
2021/01/04 09:35:42;;;;;;;6.03;2.13;;;7.20;99.90;;;;;;5030075;28;20032;-74
2021/01/04 09:38:13;;;;;;;2.95;2.28;;;7.20;99.90;;;;;;5025128;28;20025;-74
2021/01/04 09:40:39;;;;;;;2.20;2.00;;;7.40;99.90;;;;;;5032489;28;20024;-75
2021/01/04 09:43:10;;;;;;;4.10;2.20;;;7.50;99.90;;;;;;5028815;28;20041;-74
2021/01/04 09:45:36;;;;;;;2.22;1.75;;;7.50;99.90;;;;;;5031473;28;20148;-74
2021/01/04 09:48:22;;;;;;;2.20;1.75;;;7.50;99.90;;;;;;5031736;28;20033;-74
2021/01/04 09:50:57;;;;;;;2.17;1.77;;;7.50;99.90;;;;;;5031588;28;20032;-74
2021/01/04 09:53:42;;;;;;;2.35;2.03;;;7.50;99.90;;;;;;5031852;28;20025;-74
2021/01/04 09:56:12;;;;;;;2.45;2.03;;;7.40;99.90;;;;;;5031183;28;20033;-72
2021/01/04 09:58:41;;;;;;;3.10;2.25;;;7.30;99.90;;;;;;5033186;28;20018;-73
2021/01/04 10:01:10;;;;;;;2.72;1.83;;;7.30;99.90;;;;;;5026448;28;20555;-72
2021/01/04 10:03:37;;;;;;;4.95;2.42;;;7.20;99.90;;;;;;5030311;28;20017;-72
2021/01/04 10:06:08;;;;;;;4.55;3.78;;;7.20;99.90;;;;;;5032351;28;20036;-72
2021/01/04 10:08:36;;;;;;;3.80;2.97;;;7.30;99.90;;;;;;5030323;28;20029;-72
2021/01/04 10:11:06;;;;;;;3.67;2.83;;;7.50;99.90;;;;;;5033843;28;20071;-74
2021/01/04 10:13:36;;;;;;;7.00;3.03;;;7.80;99.90;;;;;;5033315;28;20459;-72
2021/01/04 10:16:06;;;;;;;2.35;1.65;;;7.90;99.90;;;;;;5031004;28;20025;-72
2021/01/04 10:18:50;;;;;;;1.70;1.60;;;8.10;99.90;;;;;;5017330;28;20041;-72
2021/01/04 10:21:19;;;;;;;2.13;2.03;;;8.20;99.90;;;;;;5032114;28;20109;-72
2021/01/04 10:23:53;;;;;;;2.60;2.08;;;8.40;99.90;;;;;;5030652;28;20025;-72
2021/01/04 10:26:19;;;;;;;3.25;2.95;;;8.50;99.90;;;;;;5028204;28;20396;-72
2021/01/04 10:28:45;;;;;;;2.95;2.55;;;8.60;99.90;;;;;;5019988;28;20026;-72
2021/01/04 10:31:13;;;;;;;3.30;2.10;;;8.60;99.90;;;;;;5027281;28;20120;-72
2021/01/04 10:33:39;;;;;;;3.05;2.78;;;8.60;99.90;;;;;;5036772;28;20139;-73
2021/01/04 10:36:16;;;;;;;3.58;2.53;;;8.50;99.90;;;;;;5035256;28;20188;-72
2021/01/04 10:38:47;;;;;;;2.13;1.70;;;8.40;99.90;;;;;;5030849;28;20481;-72
2021/01/04 10:41:16;;;;;;;2.28;2.08;;;8.20;99.90;;;;;;5023745;28;20499;-72
2021/01/04 10:43:42;;;;;;;2.83;2.25;;;7.90;99.90;;;;;;5030629;28;20142;-73
2021/01/04 10:46:21;;;;;;;2.85;2.55;;;7.60;99.90;;;;;;5029752;28;20031;-73
2021/01/04 10:49:18;;;;;;;2.63;2.05;;;7.60;99.90;;;;;;5032379;28;20400;-73
2021/01/04 10:51:54;;;;;;;1.95;1.80;;;7.70;99.90;;;;;;5028238;28;20769;-73
2021/01/04 10:54:41;;;;;;;1.50;1.40;;;7.60;99.90;;;;;;5031284;28;20022;-73
2021/01/04 10:57:25;;;;;;;6.18;2.78;;;7.70;99.90;;;;;;5025994;28;20559;-73
2021/01/04 11:00:08;;;;;;;2.38;2.03;;;7.80;99.90;;;;;;5028115;28;20037;-73
2021/01/04 11:02:42;;;;;;;2.58;2.10;;;7.90;99.90;;;;;;5031791;28;20473;-72
2021/01/04 11:05:09;;;;;;;3.45;2.40;;;8.10;99.90;;;;;;5017053;28;20032;-72
2021/01/04 11:07:36;;;;;;;3.75;2.60;;;8.00;99.90;;;;;;5035462;28;20053;-72
2021/01/04 11:10:26;;;;;;;3.97;2.50;;;8.10;99.90;;;;;;5031430;28;20082;-72
2021/01/04 11:12:57;;;;;;;2.65;2.45;;;8.20;99.90;;;;;;5034094;28;20029;-72
2021/01/04 11:15:32;;;;;;;4.03;2.45;;;8.20;99.90;;;;;;5036146;28;20066;-72
2021/01/04 11:18:11;;;;;;;8.25;2.88;;;8.30;99.90;;;;;;5033458;28;20061;-76
2021/01/04 11:20:40;;;;;;;4.05;2.80;;;8.50;99.90;;;;;;5029356;28;20040;-75
2021/01/04 11:23:09;;;;;;;2.75;2.42;;;8.60;99.90;;;;;;5035013;28;20029;-72
2021/01/04 11:25:35;;;;;;;4.47;3.03;;;8.80;99.90;;;;;;5035807;28;20432;-74
2021/01/04 11:28:03;;;;;;;3.65;2.05;;;9.00;99.90;;;;;;5034300;28;20042;-73
2021/01/04 11:30:31;;;;;;;5.10;4.13;;;9.10;99.90;;;;;;5035279;28;20096;-74
2021/01/04 11:33:02;;;;;;;2.83;2.33;;;9.30;99.90;;;;;;5035345;28;20036;-74
2021/01/04 11:35:28;;;;;;;3.25;1.75;;;9.40;99.90;;;;;;5034463;28;20033;-74
2021/01/04 11:37:55;;;;;;;2.00;1.80;;;9.50;99.90;;;;;;5035358;28;20017;-74
2021/01/04 11:40:21;;;;;;;4.05;2.30;;;9.60;99.90;;;;;;5034714;28;20028;-74
2021/01/04 11:42:47;;;;;;;3.33;2.08;;;9.70;99.90;;;;;;5031508;28;20049;-74
2021/01/04 11:45:16;;;;;;;4.22;1.95;;;9.60;99.90;;;;;;5027346;28;20018;-73
2021/01/04 11:47:43;;;;;;;1.77;1.30;;;9.40;99.90;;;;;;5035744;28;20025;-74
2021/01/04 11:50:10;;;;;;;3.60;1.83;;;9.50;99.90;;;;;;5034946;28;20017;-73
2021/01/04 11:52:36;;;;;;;1.33;1.23;;;9.60;99.90;;;;;;5034029;28;20116;-72
2021/01/04 11:55:09;;;;;;;3.08;2.25;;;9.40;99.90;;;;;;5034207;28;20064;-74
2021/01/04 11:57:36;;;;;;;3.40;2.88;;;9.30;99.90;;;;;;5035060;28;20384;-74
2021/01/04 12:00:10;;;;;;;2.53;2.10;;;9.20;99.90;;;;;;5031103;28;20029;-74
2021/01/04 12:02:35;;;;;;;3.72;2.53;;;9.30;99.90;;;;;;5031469;28;20064;-73
2021/01/04 12:05:03;;;;;;;1.38;1.27;;;9.50;99.90;;;;;;5033039;28;20489;-74
2021/01/04 12:07:29;;;;;;;2.85;2.30;;;9.50;99.90;;;;;;5033124;28;20653;-74
2021/01/04 12:09:55;;;;;;;2.88;1.95;;;9.30;99.90;;;;;;5034103;28;20029;-73
2021/01/04 12:12:21;;;;;;;2.45;2.05;;;9.10;99.90;;;;;;5033098;28;20492;-74
2021/01/04 12:14:47;;;;;;;3.00;1.85;;;9.10;99.90;;;;;;5031776;28;20032;-74
2021/01/04 12:17:14;;;;;;;2.90;2.00;;;9.10;99.90;;;;;;5031691;28;20026;-76
2021/01/04 12:19:40;;;;;;;4.47;2.38;;;9.10;99.90;;;;;;5034762;28;20060;-75
2021/01/04 12:22:10;;;;;;;5.35;3.50;;;9.20;99.90;;;;;;5034796;28;20036;-74
2021/01/04 12:24:37;;;;;;;3.15;2.15;;;9.20;99.90;;;;;;5041174;28;20037;-75
2021/01/04 12:27:04;;;;;;;2.90;2.00;;;9.00;99.90;;;;;;5034722;28;20112;-75
2021/01/04 12:29:31;;;;;;;3.78;2.85;;;8.90;99.90;;;;;;5027898;28;20041;-74
2021/01/04 12:31:57;;;;;;;4.05;3.47;;;9.00;99.90;;;;;;5033543;28;20128;-75
2021/01/04 12:34:23;;;;;;;3.17;2.63;;;9.00;99.90;;;;;;5031997;28;20025;-75
2021/01/04 12:36:49;;;;;;;2.80;2.55;;;9.00;99.90;;;;;;5026149;28;20021;-74
2021/01/04 12:39:15;;;;;;;5.38;2.58;;;9.00;99.90;;;;;;5032620;28;20080;-74
2021/01/04 12:41:42;;;;;;;3.50;2.22;;;9.00;99.90;;;;;;5034008;28;20413;-75
2021/01/04 12:44:10;;;;;;;3.83;2.55;;;8.90;99.90;;;;;;5025040;28;20037;-74
2021/01/04 12:46:48;;;;;;;2.83;2.28;;;8.80;99.90;;;;;;5033024;28;20022;-74
2021/01/04 12:49:17;;;;;;;2.58;2.15;;;8.90;99.90;;;;;;5028041;28;20444;-74
2021/01/04 12:51:51;;;;;;;3.72;2.40;;;9.00;99.90;;;;;;5031520;28;20025;-75
2021/01/04 12:54:19;;;;;;;3.63;2.45;;;8.90;99.90;;;;;;5029791;28;20082;-75
2021/01/04 12:56:47;;;;;;;3.55;1.95;;;9.00;99.90;;;;;;5026646;28;20051;-76
2021/01/04 12:59:15;;;;;;;1.85;1.73;;;9.00;99.90;;;;;;5033626;28;20101;-75
2021/01/04 13:01:41;;;;;;;3.63;2.17;;;9.00;99.90;;;;;;5033351;28;20152;-74
2021/01/04 13:04:07;;;;;;;5.32;2.58;;;9.00;99.90;;;;;;5025466;28;20025;-73
2021/01/04 13:06:33;;;;;;;3.85;2.00;;;9.00;99.90;;;;;;5033740;28;20030;-73
2021/01/04 13:09:01;;;;;;;4.22;2.78;;;9.10;99.90;;;;;;5032471;28;20613;-74
2021/01/04 13:11:27;;;;;;;2.83;2.55;;;9.10;99.90;;;;;;5025721;28;20022;-73
2021/01/04 13:13:53;;;;;;;4.05;3.50;;;9.10;99.90;;;;;;5017611;28;20036;-73
2021/01/04 13:16:19;;;;;;;4.82;2.78;;;9.10;99.90;;;;;;5032391;28;20088;-75
2021/01/04 13:18:45;;;;;;;2.92;2.47;;;9.20;99.90;;;;;;5033814;28;20029;-74
2021/01/04 13:21:21;;;;;;;5.28;3.20;;;9.10;99.90;;;;;;5032054;28;20025;-74
2021/01/04 13:23:48;;;;;;;11.68;2.50;;;9.20;99.90;;;;;;5031460;28;20037;-73
2021/01/04 13:26:15;;;;;;;3.58;2.70;;;9.30;99.90;;;;;;5032643;28;20029;-73
2021/01/04 13:28:44;;;;;;;3.42;2.65;;;9.20;99.90;;;;;;5031260;28;20091;-74
2021/01/04 13:31:10;;;;;;;3.08;2.72;;;9.30;99.90;;;;;;5025382;28;20025;-74
2021/01/04 13:33:36;;;;;;;2.53;2.33;;;9.30;99.90;;;;;;5032058;28;20028;-74
2021/01/04 13:36:07;;;;;;;2.88;2.67;;;9.30;99.90;;;;;;5029816;28;20598;-75
2021/01/04 13:38:33;;;;;;;3.50;3.08;;;9.20;99.90;;;;;;5033298;28;20079;-74
2021/01/04 13:40:59;;;;;;;4.40;2.53;;;9.30;99.90;;;;;;5027025;28;20089;-74
2021/01/04 13:43:24;;;;;;;5.10;4.00;;;9.20;99.90;;;;;;5032857;28;20025;-75
2021/01/04 13:45:50;;;;;;;7.47;2.88;;;9.30;99.90;;;;;;5033031;28;20111;-75
2021/01/04 13:48:16;;;;;;;4.55;2.63;;;9.30;99.90;;;;;;5031881;28;20029;-74
2021/01/04 13:50:43;;;;;;;7.53;3.92;;;9.30;99.90;;;;;;5032558;28;20025;-74
2021/01/04 13:53:09;;;;;;;4.95;3.13;;;9.40;99.90;;;;;;5032611;28;20070;-73
2021/01/04 13:55:35;;;;;;;3.40;3.08;;;9.40;99.90;;;;;;5031964;28;20134;-74
2021/01/04 13:58:00;;;;;;;6.90;3.50;;;9.40;99.90;;;;;;5029574;28;20049;-75
2021/01/04 14:00:27;;;;;;;6.25;3.40;;;9.50;99.90;;;;;;5037565;28;20021;-74
2021/01/04 14:02:53;;;;;;;5.38;3.40;;;9.60;99.90;;;;;;5041424;28;20526;-74
2021/01/04 14:05:19;;;;;;;5.88;3.53;;;9.70;99.90;;;;;;5036799;28;20107;-73